createdAt,value
2018-12-18T00:01:56.025Z,11.50
2018-12-18T00:04:29.931Z,9.90
2018-12-18T00:07:02.663Z,9.30
2018-12-18T00:09:34.768Z,11.10
2018-12-18T00:12:05.060Z,11.40
2018-12-18T00:14:37.181Z,11.53
2018-12-18T00:17:12.650Z,11.23
2018-12-18T00:19:46.688Z,11.17
2018-12-18T00:22:21.533Z,10.57
2018-12-18T00:24:51.552Z,11.77
2018-12-18T00:27:23.713Z,12.97
2018-12-18T00:29:55.770Z,12.77
2018-12-18T00:32:27.666Z,11.70
2018-12-18T00:35:00.180Z,8.63
2018-12-18T00:37:32.513Z,13.20
2018-12-18T00:40:05.717Z,12.70
2018-12-18T00:42:37.996Z,8.73
2018-12-18T00:45:12.785Z,10.63
2018-12-18T00:47:43.264Z,12.43
2018-12-18T00:50:17.765Z,14.30
2018-12-18T00:52:52.566Z,11.07
2018-12-18T00:55:36.895Z,11.57
2018-12-18T00:58:07.168Z,11.47
2018-12-18T01:00:42.568Z,12.60
2018-12-18T01:03:14.494Z,11.90
2018-12-18T01:05:46.519Z,7.97
2018-12-18T01:08:20.656Z,11.87
2018-12-18T01:10:52.632Z,11.03
2018-12-18T01:13:24.577Z,8.53
2018-12-18T01:15:58.902Z,11.43
2018-12-18T01:18:30.351Z,11.87
2018-12-18T01:21:02.592Z,13.13
2018-12-18T01:23:34.726Z,13.17
2018-12-18T01:26:10.910Z,12.70
2018-12-18T01:28:44.975Z,11.53
2018-12-18T01:31:16.731Z,10.33
2018-12-18T01:33:49.019Z,12.70
2018-12-18T01:36:23.262Z,14.57
2018-12-18T01:38:57.255Z,11.60
2018-12-18T01:41:31.478Z,13.73
2018-12-18T01:44:05.467Z,13.53
2018-12-18T01:46:50.253Z,12.00
2018-12-18T01:49:24.807Z,12.77
2018-12-18T01:51:57.253Z,11.03
2018-12-18T01:54:29.615Z,14.37
2018-12-18T01:57:01.875Z,11.63
2018-12-18T01:59:33.702Z,11.20
2018-12-18T02:02:06.043Z,14.37
2018-12-18T02:04:38.023Z,12.90
2018-12-18T02:07:12.411Z,14.80
2018-12-18T02:09:46.598Z,13.63
2018-12-18T02:12:18.194Z,12.80
2018-12-18T02:14:56.718Z,12.93
2018-12-18T02:17:28.604Z,14.03
2018-12-18T02:19:58.847Z,12.33
2018-12-18T02:22:34.184Z,11.83
2018-12-18T02:25:06.625Z,7.47
2018-12-18T02:27:41.228Z,10.90
2018-12-18T02:30:15.348Z,12.47
2018-12-18T02:32:47.139Z,14.53
2018-12-18T02:35:19.260Z,13.40
2018-12-18T02:37:51.466Z,12.83
2018-12-18T02:40:23.389Z,14.43
2018-12-18T02:42:55.699Z,15.83
2018-12-18T02:45:27.689Z,6.57
2018-12-18T02:48:02.209Z,15.10
2018-12-18T02:50:31.925Z,11.53
2018-12-18T02:53:04.042Z,12.80
2018-12-18T02:55:36.108Z,15.17
2018-12-18T02:58:07.970Z,13.83
2018-12-18T03:00:40.271Z,13.63
2018-12-18T03:03:14.579Z,13.33
2018-12-18T03:05:49.314Z,13.30
2018-12-18T03:08:21.503Z,12.70
2018-12-18T03:10:53.538Z,12.47
2018-12-18T03:13:25.699Z,11.93
2018-12-18T03:15:57.991Z,12.23
2018-12-18T03:18:31.903Z,14.03
2018-12-18T03:21:03.637Z,12.63
2018-12-18T03:23:35.804Z,13.30
2018-12-18T03:26:08.162Z,13.63
2018-12-18T03:28:43.193Z,13.37
2018-12-18T03:31:15.156Z,12.57
2018-12-18T03:33:47.268Z,11.77
2018-12-18T03:36:19.216Z,11.07
2018-12-18T03:38:53.722Z,11.70
2018-12-18T03:41:27.975Z,13.00
2018-12-18T03:43:59.802Z,12.13
2018-12-18T03:46:34.301Z,12.63
2018-12-18T03:49:06.096Z,11.73
2018-12-18T03:51:40.542Z,10.10
2018-12-18T03:54:12.310Z,12.70
2018-12-18T03:56:42.295Z,12.87
2018-12-18T03:59:14.372Z,10.97
2018-12-18T04:01:46.469Z,12.87
2018-12-18T04:04:20.667Z,12.80
2018-12-18T04:06:54.580Z,12.77
2018-12-18T04:09:27.135Z,14.30
2018-12-18T04:12:04.801Z,11.67
2018-12-18T04:14:37.758Z,10.47
2018-12-18T04:17:09.458Z,13.60
2018-12-18T04:19:41.675Z,12.57
2018-12-18T04:22:13.737Z,12.17
2018-12-18T04:24:48.116Z,13.27
2018-12-18T04:27:22.158Z,13.00
2018-12-18T04:29:56.378Z,11.17
2018-12-18T04:32:28.803Z,11.70
2018-12-18T04:35:04.205Z,11.37
2018-12-18T04:37:42.256Z,11.77
2018-12-18T04:40:14.953Z,11.30
2018-12-18T04:42:46.954Z,10.90
2018-12-18T04:45:21.599Z,10.37
2018-12-18T04:47:56.631Z,11.40
2018-12-18T04:50:28.342Z,10.17
2018-12-18T04:52:58.457Z,10.70
2018-12-18T04:55:30.415Z,11.07
2018-12-18T04:58:02.567Z,9.77
2018-12-18T05:00:34.596Z,10.67
2018-12-18T05:03:10.953Z,11.20
2018-12-18T05:05:42.942Z,10.83
2018-12-18T05:08:15.142Z,9.97
2018-12-18T05:10:49.505Z,9.30
2018-12-18T05:13:21.248Z,10.73
2018-12-18T05:15:53.385Z,11.20
2018-12-18T05:18:25.556Z,11.30
2018-12-18T05:21:01.071Z,13.47
2018-12-18T05:23:35.067Z,9.97
2018-12-18T05:26:07.653Z,11.37
2018-12-18T05:28:40.206Z,14.97
2018-12-18T05:31:12.415Z,11.07
2018-12-18T05:33:42.611Z,9.20
2018-12-18T05:36:17.284Z,9.00
2018-12-18T05:38:51.212Z,11.70
2018-12-18T05:41:22.977Z,6.90
2018-12-18T05:43:55.131Z,8.00
2018-12-18T05:46:27.149Z,10.13
2018-12-18T05:49:01.669Z,9.23
2018-12-18T05:51:33.489Z,8.47
2018-12-18T05:56:36.089Z,8.93
2018-12-18T05:59:10.565Z,7.90
2018-12-18T06:01:43.096Z,8.20
2018-12-18T06:04:15.145Z,8.60
2018-12-18T06:06:50.111Z,8.60
2018-12-18T06:09:20.490Z,7.57
2018-12-18T06:11:50.530Z,9.63
2018-12-18T06:14:25.002Z,10.37
2018-12-18T06:16:56.341Z,9.97
2018-12-18T06:19:30.914Z,10.20
2018-12-18T06:22:02.995Z,10.50
2018-12-18T06:24:33.055Z,10.57
2018-12-18T06:27:07.572Z,10.67
2018-12-18T06:29:41.639Z,11.00
2018-12-18T06:32:12.374Z,10.23
2018-12-18T06:34:48.031Z,9.97
2018-12-18T06:37:18.404Z,10.10
2018-12-18T06:40:01.777Z,10.30
2018-12-18T06:42:32.398Z,10.07
2018-12-18T06:45:05.070Z,13.53
2018-12-18T06:47:41.188Z,10.93
2018-12-18T06:50:13.789Z,10.80
2018-12-18T06:52:45.853Z,10.17
2018-12-18T06:55:18.018Z,10.47
2018-12-18T06:57:52.491Z,10.93
2018-12-18T07:00:24.927Z,10.27
2018-12-18T07:02:56.960Z,11.10
2018-12-18T07:05:29.110Z,10.17
2018-12-18T07:08:01.270Z,9.37
2018-12-18T07:10:33.020Z,11.67
2018-12-18T07:13:05.171Z,11.03
2018-12-18T07:15:37.105Z,11.43
2018-12-18T07:18:09.226Z,12.53
2018-12-18T07:20:43.720Z,12.10
2018-12-18T07:23:17.699Z,12.80
2018-12-18T07:25:50.201Z,12.20
2018-12-18T07:28:22.125Z,7.07
2018-12-18T07:30:56.346Z,11.90
2018-12-18T07:33:32.238Z,13.73
2018-12-18T07:36:02.967Z,10.57
2018-12-18T07:38:32.601Z,14.87
2018-12-18T07:41:11.333Z,13.47
2018-12-18T07:43:42.995Z,12.23
2018-12-18T07:46:13.035Z,13.13
2018-12-18T07:48:45.079Z,12.03
2018-12-18T07:51:17.242Z,12.73
2018-12-18T07:53:49.410Z,10.07
2018-12-18T07:56:21.350Z,13.50
2018-12-18T07:58:51.507Z,10.50
2018-12-18T08:01:21.604Z,12.33
2018-12-18T08:03:53.426Z,12.00
2018-12-18T08:06:29.849Z,11.90
2018-12-18T08:09:02.343Z,10.47
2018-12-18T08:11:34.159Z,9.97
2018-12-18T08:14:04.380Z,9.57
2018-12-18T08:16:39.054Z,10.23
2018-12-18T08:19:11.110Z,10.40
2018-12-18T08:21:43.051Z,10.63
2018-12-18T08:24:15.055Z,10.33
2018-12-18T08:26:45.228Z,8.33
2018-12-18T08:29:17.546Z,12.80
2018-12-18T08:31:51.830Z,8.43
2018-12-18T08:34:25.762Z,11.03
2018-12-18T08:36:59.939Z,10.93
2018-12-18T08:39:31.796Z,10.80
2018-12-18T08:42:01.810Z,10.30
2018-12-18T08:44:32.101Z,10.80
2018-12-18T08:47:03.777Z,9.63
2018-12-18T08:49:38.363Z,10.73
2018-12-18T08:52:09.954Z,11.60
2018-12-18T08:54:44.517Z,10.37
2018-12-18T08:57:16.441Z,11.67
2018-12-18T08:59:50.759Z,12.30
2018-12-18T09:02:24.854Z,10.67
2018-12-18T09:04:56.597Z,11.67
2018-12-18T09:07:35.657Z,12.83
2018-12-18T09:10:10.322Z,8.87
2018-12-18T09:12:40.783Z,9.60
2018-12-18T09:15:20.344Z,9.53
2018-12-18T09:17:52.818Z,13.00
2018-12-18T09:20:27.182Z,10.73
2018-12-18T09:22:58.814Z,9.43
2018-12-18T09:25:30.767Z,9.93
2018-12-18T09:28:06.157Z,9.90
2018-12-18T09:30:42.513Z,10.27
2018-12-18T09:33:14.858Z,10.20
2018-12-18T09:35:49.682Z,12.17
2018-12-18T09:38:28.311Z,14.13
2018-12-18T09:41:03.891Z,13.87
2018-12-18T09:43:40.961Z,11.00
2018-12-18T09:46:12.582Z,13.57
2018-12-18T09:48:44.718Z,11.10
2018-12-18T09:51:15.016Z,14.17
2018-12-18T09:53:45.160Z,12.67
2018-12-18T09:56:19.464Z,13.67
2018-12-18T09:58:53.389Z,12.23
2018-12-18T10:01:25.011Z,15.80
2018-12-18T10:03:54.749Z,17.90
2018-12-18T10:06:27.048Z,13.77
2018-12-18T10:08:59.006Z,13.57
2018-12-18T10:11:31.057Z,15.10
2018-12-18T10:14:03.122Z,15.23
2018-12-18T10:16:37.548Z,12.93
2018-12-18T10:19:11.497Z,12.87
2018-12-18T10:21:45.565Z,11.93
2018-12-18T10:24:18.082Z,12.80
2018-12-18T10:26:48.075Z,11.23
2018-12-18T10:29:22.335Z,13.17
2018-12-18T10:31:53.986Z,11.40
2018-12-18T10:34:28.213Z,10.60
2018-12-18T10:37:00.030Z,13.03
2018-12-18T10:39:32.135Z,11.10
2018-12-18T10:42:04.203Z,10.10
2018-12-18T10:44:36.624Z,12.70
2018-12-18T10:47:08.881Z,11.20
2018-12-18T10:49:39.146Z,12.67
2018-12-18T10:52:13.580Z,12.43
2018-12-18T10:54:46.124Z,13.00
2018-12-18T10:57:18.301Z,13.30
2018-12-18T10:59:50.177Z,14.37
2018-12-18T11:02:22.291Z,11.30
2018-12-18T11:04:54.243Z,11.97
2018-12-18T11:07:26.166Z,14.63
2018-12-18T11:09:56.583Z,13.30
2018-12-18T11:12:36.250Z,11.23
2018-12-18T11:15:06.888Z,13.23
2018-12-18T11:17:38.499Z,12.87
2018-12-18T11:20:12.760Z,12.37
2018-12-18T11:22:45.341Z,13.17
2018-12-18T11:25:19.690Z,14.20
2018-12-18T11:27:51.422Z,11.67
2018-12-18T11:30:23.129Z,11.87
2018-12-18T11:32:57.333Z,11.23
2018-12-18T11:35:31.392Z,10.43
2018-12-18T11:38:03.326Z,10.47
2018-12-18T11:40:35.354Z,11.90
2018-12-18T11:43:07.408Z,10.10
2018-12-18T11:45:37.653Z,9.57
2018-12-18T11:48:10.807Z,9.60
2018-12-18T11:50:42.999Z,10.07
2018-12-18T11:53:15.109Z,8.90
2018-12-18T11:55:47.197Z,9.63
2018-12-18T11:58:25.706Z,8.53
2018-12-18T12:00:57.774Z,8.73
2018-12-18T12:03:28.084Z,8.67
2018-12-18T12:06:00.185Z,8.00
2018-12-18T12:08:32.113Z,7.93
2018-12-18T12:11:04.300Z,11.70
2018-12-18T12:13:38.754Z,20.20
2018-12-18T12:16:11.241Z,19.53
2018-12-18T12:18:41.638Z,18.30
2018-12-18T12:21:13.692Z,12.57
2018-12-18T12:23:50.255Z,10.90
2018-12-18T12:26:27.952Z,9.10
2018-12-18T12:29:14.381Z,8.57
2018-12-18T12:31:44.883Z,8.70
2018-12-18T12:34:19.310Z,8.97
2018-12-18T12:39:47.570Z,8.27
2018-12-18T12:42:17.188Z,8.53
2018-12-18T12:44:51.096Z,7.77
2018-12-18T12:47:27.164Z,6.00
2018-12-18T12:50:02.567Z,7.53
2018-12-18T12:52:32.650Z,7.47
2018-12-18T12:55:07.019Z,6.33
2018-12-18T12:57:37.290Z,7.33
2018-12-18T13:00:12.364Z,6.50
2018-12-18T13:02:48.721Z,6.80
2018-12-18T13:05:22.962Z,6.00
2018-12-18T13:07:56.230Z,6.03
2018-12-18T13:10:31.794Z,6.27
2018-12-18T13:13:04.472Z,7.23
2018-12-18T13:15:38.596Z,5.50
2018-12-18T13:18:10.400Z,6.13
2018-12-18T13:20:40.567Z,5.23
2018-12-18T13:23:13.036Z,6.67
2018-12-18T13:25:42.750Z,4.83
2018-12-18T13:28:12.813Z,5.07
2018-12-18T13:30:44.442Z,4.90
2018-12-18T13:33:16.374Z,5.23
2018-12-18T13:35:46.545Z,5.37
2018-12-18T13:38:18.864Z,5.83
2018-12-18T13:40:50.473Z,4.87
2018-12-18T13:43:21.222Z,5.30
2018-12-18T13:45:55.987Z,5.17
2018-12-18T13:48:26.255Z,4.93
2018-12-18T13:50:59.114Z,4.33
2018-12-18T13:53:30.800Z,4.10
2018-12-18T13:56:05.107Z,4.13
2018-12-18T13:58:36.557Z,4.77
2018-12-18T14:01:08.200Z,3.40
2018-12-18T14:03:38.493Z,3.80
2018-12-18T14:06:08.801Z,3.90
2018-12-18T14:08:41.894Z,3.57
2018-12-18T14:11:12.050Z,3.30
2018-12-18T14:13:46.399Z,3.37
2018-12-18T14:16:20.799Z,3.77
2018-12-18T14:18:53.406Z,3.40
2018-12-18T14:21:25.475Z,3.47
2018-12-18T14:23:55.795Z,2.70
2018-12-18T14:26:25.929Z,3.83
2018-12-18T14:28:58.156Z,3.27
2018-12-18T14:31:30.001Z,2.93
2018-12-18T14:34:01.936Z,3.40
2018-12-18T14:36:32.014Z,2.50
2018-12-18T14:39:06.178Z,2.70
2018-12-18T14:41:36.525Z,2.37
2018-12-18T14:44:11.249Z,2.60
2018-12-18T14:46:43.383Z,3.73
2018-12-18T14:49:13.460Z,3.23
2018-12-18T14:51:43.028Z,2.57
2018-12-18T14:54:15.494Z,3.33
2018-12-18T14:56:47.172Z,2.73
2018-12-18T14:59:17.817Z,3.87
2018-12-18T15:01:49.232Z,3.33
2018-12-18T15:04:21.733Z,3.33
2018-12-18T15:07:02.853Z,3.37
2018-12-18T15:09:31.163Z,2.90
2018-12-18T15:12:01.403Z,4.03
2018-12-18T15:14:33.685Z,4.10
2018-12-18T15:17:05.517Z,3.50
2018-12-18T15:19:37.537Z,3.57
2018-12-18T15:22:09.345Z,3.53
2018-12-18T15:24:41.669Z,2.90
2018-12-18T15:27:13.658Z,4.40
2018-12-18T15:29:45.803Z,3.97
2018-12-18T15:32:17.691Z,3.20
2018-12-18T15:34:49.762Z,3.40
2018-12-18T15:37:21.849Z,3.60
2018-12-18T15:39:52.017Z,3.40
2018-12-18T15:42:24.166Z,2.97
2018-12-18T15:44:54.388Z,3.53
2018-12-18T15:47:24.710Z,3.33
2018-12-18T15:49:56.871Z,3.77
2018-12-18T15:52:28.894Z,3.10
2018-12-18T15:55:03.438Z,3.37
2018-12-18T15:57:33.978Z,3.23
2018-12-18T16:00:06.833Z,3.07
2018-12-18T16:02:41.431Z,3.70
2018-12-18T16:05:13.121Z,4.50
2018-12-18T16:07:45.439Z,3.60
2018-12-18T16:10:17.535Z,3.70
2018-12-18T16:12:47.720Z,4.73
2018-12-18T16:15:17.874Z,6.20
2018-12-18T16:17:49.918Z,3.53
2018-12-18T16:20:20.160Z,4.00
2018-12-18T16:22:52.264Z,5.07
2018-12-18T16:25:24.565Z,4.70
2018-12-18T16:27:56.694Z,6.97
2018-12-18T16:30:28.677Z,4.70
2018-12-18T16:33:00.718Z,4.40
2018-12-18T16:35:35.936Z,4.77
2018-12-18T16:38:09.958Z,4.83
2018-12-18T16:40:42.781Z,3.67
2018-12-18T16:43:13.303Z,3.37
2018-12-18T16:45:45.512Z,3.97
2018-12-18T16:48:17.748Z,3.37
2018-12-18T16:50:51.971Z,3.40
2018-12-18T16:53:23.833Z,4.00
2018-12-18T16:55:59.430Z,4.10
2018-12-18T16:58:31.892Z,6.63
2018-12-18T17:01:10.646Z,4.37
2018-12-18T17:03:43.030Z,4.17
2018-12-18T17:06:17.259Z,8.80
2018-12-18T17:08:49.035Z,7.17
2018-12-18T17:11:19.512Z,4.77
2018-12-18T17:13:54.011Z,4.40
2018-12-18T17:16:26.828Z,4.33
2018-12-18T17:19:01.103Z,3.80
2018-12-18T17:21:31.592Z,3.40
2018-12-18T17:24:04.318Z,3.70
2018-12-18T17:26:36.774Z,4.00
2018-12-18T17:29:23.553Z,3.50
2018-12-18T17:31:55.026Z,4.30
2018-12-18T17:34:30.471Z,4.20
2018-12-18T17:37:04.738Z,4.47
2018-12-18T17:39:37.243Z,3.70
2018-12-18T17:42:09.424Z,3.80
2018-12-18T17:44:43.932Z,3.43
2018-12-18T17:47:18.963Z,3.93
2018-12-18T17:49:49.357Z,2.67
2018-12-18T17:52:21.404Z,3.60
2018-12-18T17:54:53.500Z,3.23
2018-12-18T17:57:25.488Z,2.93
2018-12-18T18:00:00.261Z,2.83
2018-12-18T18:02:30.982Z,3.20
2018-12-18T18:05:03.188Z,3.27
2018-12-18T18:07:35.451Z,2.70
2018-12-18T18:10:09.433Z,2.97
2018-12-18T18:12:43.549Z,3.13
2018-12-18T18:15:17.899Z,3.50
2018-12-18T18:17:50.433Z,3.60
2018-12-18T18:20:23.084Z,4.07
2018-12-18T18:22:55.403Z,2.53
2018-12-18T18:25:27.691Z,3.30
2018-12-18T18:28:02.128Z,3.00
2018-12-18T18:30:34.208Z,2.67
2018-12-18T18:33:06.102Z,3.57
2018-12-18T18:35:38.335Z,3.40
2018-12-18T18:38:10.745Z,2.70
2018-12-18T18:40:43.632Z,3.17
2018-12-18T18:43:22.208Z,3.00
2018-12-18T18:45:55.275Z,3.33
2018-12-18T18:48:27.685Z,3.17
2018-12-18T18:51:02.155Z,2.73
2018-12-18T18:53:36.708Z,3.47
2018-12-18T18:56:09.417Z,3.33
2018-12-18T18:58:43.642Z,2.87
2018-12-18T19:01:14.099Z,3.30
2018-12-18T19:03:46.442Z,3.47
2018-12-18T19:06:19.255Z,3.30
2018-12-18T19:09:03.858Z,4.47
2018-12-18T19:11:36.523Z,3.40
2018-12-18T19:14:08.464Z,3.10
2018-12-18T19:16:42.760Z,3.00
2018-12-18T19:19:14.122Z,3.93
2018-12-18T19:21:46.170Z,3.87
2018-12-18T19:24:20.292Z,3.20
2018-12-18T19:27:02.919Z,3.33
2018-12-18T19:29:37.172Z,4.03
2018-12-18T19:32:17.837Z,4.93
2018-12-18T19:34:52.999Z,3.70
2018-12-18T19:37:25.559Z,4.10
2018-12-18T19:39:57.887Z,3.83
2018-12-18T19:42:30.409Z,3.07
2018-12-18T19:45:03.401Z,3.67
2018-12-18T19:47:35.338Z,3.40
2018-12-18T19:50:07.605Z,3.53
2018-12-18T19:52:39.644Z,4.80
2018-12-18T19:55:12.865Z,3.53
2018-12-18T19:57:43.725Z,3.07
2018-12-18T20:00:16.712Z,3.63
2018-12-18T20:02:47.688Z,3.03
2018-12-18T20:05:21.868Z,3.03
2018-12-18T20:07:54.717Z,3.40
2018-12-18T20:10:27.447Z,4.17
2018-12-18T20:13:05.614Z,3.70
2018-12-18T20:15:41.043Z,3.07
2018-12-18T20:18:14.057Z,3.07
2018-12-18T20:20:46.254Z,3.33
2018-12-18T20:23:20.746Z,3.73
2018-12-18T20:25:56.626Z,5.00
2018-12-18T20:28:31.140Z,4.07
2018-12-18T20:31:06.018Z,4.03
2018-12-18T20:33:38.886Z,3.40
2018-12-18T20:36:13.082Z,3.70
2018-12-18T20:38:48.272Z,4.23
2018-12-18T20:41:20.173Z,2.93
2018-12-18T20:43:52.817Z,3.07
2018-12-18T20:46:25.190Z,3.43
2018-12-18T20:49:00.151Z,4.87
2018-12-18T20:51:31.076Z,3.33
2018-12-18T20:54:06.617Z,3.70
2018-12-18T20:56:40.639Z,5.17
2018-12-18T20:59:14.895Z,3.30
2018-12-18T21:01:45.708Z,3.67
2018-12-18T21:04:20.229Z,2.80
2018-12-18T21:06:52.841Z,3.33
2018-12-18T21:09:23.629Z,3.30
2018-12-18T21:11:55.436Z,4.27
2018-12-18T21:14:27.696Z,4.27
2018-12-18T21:16:59.761Z,4.00
2018-12-18T21:19:38.346Z,4.03
2018-12-18T21:23:40.692Z,3.40
2018-12-18T21:26:15.648Z,4.10
2018-12-18T21:28:47.612Z,4.40
2018-12-18T21:31:21.834Z,3.67
2018-12-18T21:33:54.742Z,4.10
2018-12-18T21:36:28.835Z,3.60
2018-12-18T21:41:54.599Z,4.23
2018-12-18T21:44:28.597Z,3.90
2018-12-18T21:46:59.475Z,3.97
2018-12-18T21:49:31.615Z,4.07
2018-12-18T21:52:02.537Z,3.13
2018-12-18T21:54:36.573Z,4.17
2018-12-18T21:57:07.395Z,3.67
2018-12-18T21:59:39.434Z,3.77
2018-12-18T22:02:11.901Z,3.40
2018-12-18T22:04:46.064Z,4.67
2018-12-18T22:07:17.925Z,4.60
2018-12-18T22:09:52.269Z,3.70
2018-12-18T22:12:24.747Z,2.83
2018-12-18T22:14:56.975Z,3.50
2018-12-18T22:17:33.862Z,3.80
2018-12-18T22:20:08.718Z,4.33
2018-12-18T22:22:40.608Z,3.53
2018-12-18T22:25:13.510Z,3.83
2018-12-18T22:27:46.595Z,3.63
2018-12-18T22:30:21.669Z,3.27
2018-12-18T22:32:53.893Z,4.07
2018-12-18T22:35:25.835Z,3.10
2018-12-18T22:37:58.299Z,3.97
2018-12-18T22:40:30.333Z,2.50
2018-12-18T22:43:08.802Z,3.00
2018-12-18T22:45:41.277Z,3.87
2018-12-18T22:48:13.414Z,3.63
2018-12-18T22:50:47.662Z,3.07
2018-12-18T22:53:22.676Z,3.83
2018-12-18T22:55:57.718Z,2.93
2018-12-18T22:58:33.482Z,3.57
2018-12-18T23:04:21.523Z,3.83
2018-12-18T23:07:00.191Z,3.37
2018-12-18T23:09:34.661Z,3.67
2018-12-18T23:12:07.227Z,3.43
2018-12-18T23:14:39.758Z,2.63
2018-12-18T23:17:19.143Z,4.07
2018-12-18T23:19:53.717Z,3.27
2018-12-18T23:22:26.933Z,3.23
2018-12-18T23:25:00.592Z,3.00
2018-12-18T23:27:32.638Z,3.30
2018-12-18T23:30:07.311Z,4.03
2018-12-18T23:32:39.992Z,2.90
2018-12-18T23:35:14.129Z,3.17
2018-12-18T23:37:46.749Z,2.80
2018-12-18T23:40:21.000Z,2.63
2018-12-18T23:42:51.222Z,3.20
2018-12-18T23:45:21.930Z,3.03
2018-12-18T23:47:56.017Z,3.80
2018-12-18T23:50:28.284Z,2.37
2018-12-18T23:53:02.247Z,4.10
2018-12-18T23:55:34.020Z,3.43
2018-12-18T23:58:06.232Z,3.53
